Accueil
METAR-TAF:

METAR-TAF

Aéroports :

Lydd, Angleterre

Aéroport de Lydd

latitude: 50-57N, longitude: 000-56E, altitude: 3 m

Observation

Le bulletin a été fait il y a 36 minutes, à 20:50 UTC
Vent 8 kt de nord
Température 4°C
Humidité 81%
Pression 1019 hPa
Visibilité 10 km ou plus

METAR: EGMD 262050Z AUTO 35008KT 9999 NCD 04/01 Q1019

Heure: 22:26 (21:26 UTC)

Prévision

Le bulletin a été fait il y a 1 heure et 28 minutes, à 19:58 UTC
Prévision valable du 26 à 21 UTC au 27 à 06 UTC
Vent 9 kt de nord
Visibilité 10 km ou plus
Quelques nuages à une hauteur de 3000 ft
Nuages épars à une hauteur de 4000 ft
Probabilité 30% :
Temporairement
du 26 à 21 UTC au 26 à 22 UTC
Visibilité: 7000 m
averses de pluie

TAF: EGMD 261958Z 2621/2706 35009KT 9999 FEW030 SCT040 PROB30 TEMPO 2621/2622 7000 SHRA

Observations et prévisions météorologiques de plus de 4000 aéroports (messages METAR et TAF).

Les stations disponibles sont représentées par des disques jaunes et rouges sur la carte.

Passer la souris dessus pour voir le nom de la station.

Cliquer dessus pour voir les observations et prévisions météorologiques.

Pour changer de carte: cliquez sur les boutons verts avec une croix noire pour zoomer, sur le bouton vert avec un tiret pour effectuer un zoom arrière, ou sur les flèches vertes pour les cartes adjacentes.


METAR-TAF: